Terminal Aerodrome Forecast
Issued by NWS Boise, ID

Home | Current Version | Previous Version | Text Only | Print | Product List | Glossary On
Versions: 1 2 3 4 5 6 7 8 9 10 11 12 13 14 15
000
FTUS45 KBOI 231120
TAFBNO
TAF
KBNO 231120Z 2312/2412 24006KT P6SM OVC080
     FM231800 23012G22KT P6SM OVC100
     FM240200 23010KT P6SM -SHRA BKN040
     FM240900 VRB04KT P6SM -RA OVC025=

USA.gov is the U.S. government's official web portal to all federal, state and local government web resources and services.